Airport ICAO


11:52 UTC

25°C

Clear skies


An affordable passengers' Moving Map for your aircraft. Made for the iPad and the iPhone
More information here

LFPM Villaroche


Melun FRANCE   VFR CAVOK


METAR LFPM 191130Z AUTO 23006KT 190V290 CAVOK 25/09 Q1025 0h22min





NOTAMS

OPEN